Time;durP1;ratioP1;P1;durP2;ratioP2;P2;SDS_P1;SDS_P2;PMS_P1;PMS_P2;Temp;Humidity;BMP_temperature;BMP_pressure;BME280_temperature;BME280_humidity;BME280_pressure;Samples;Min_cycle;Max_cycle;Signal;HPM_P1;HPM_P2
2023/03/04 00:02:01;;;;;;;131.38;41.60;;;2.90;99.90;;;;;;5038694;28;20192;-86
2023/03/04 00:04:29;;;;;;;116.88;39.63;;;2.90;99.90;;;;;;5039441;28;20200;-85
2023/03/04 00:06:55;;;;;;;135.15;42.40;;;3.00;99.90;;;;;;5040289;28;20162;-84
2023/03/04 00:09:24;;;;;;;123.90;38.87;;;3.00;99.90;;;;;;5041773;28;20173;-84
2023/03/04 00:11:49;;;;;;;128.50;39.33;;;3.00;99.90;;;;;;5039641;28;20607;-84
2023/03/04 00:14:18;;;;;;;127.40;40.30;;;3.00;99.90;;;;;;5041033;28;20200;-84
2023/03/04 00:16:44;;;;;;;132.20;41.50;;;3.00;99.90;;;;;;5038909;28;20165;-85
2023/03/04 00:19:11;;;;;;;127.63;39.40;;;3.00;99.90;;;;;;5040292;28;20276;-85
2023/03/04 00:21:37;;;;;;;135.25;41.63;;;3.00;99.90;;;;;;5038729;28;20225;-85
2023/03/04 00:24:03;;;;;;;122.37;34.83;;;3.00;99.90;;;;;;5039720;28;20196;-85
2023/03/04 00:26:28;;;;;;;129.93;39.37;;;3.00;99.90;;;;;;5038098;28;20169;-85
2023/03/04 00:28:54;;;;;;;122.97;37.90;;;3.00;99.90;;;;;;5039749;28;20173;-86
2023/03/04 00:31:20;;;;;;;115.60;33.30;;;3.10;99.90;;;;;;5039649;28;20196;-87
2023/03/04 00:33:45;;;;;;;116.87;39.17;;;3.10;99.90;;;;;;5039668;28;20185;-86
2023/03/04 00:36:11;;;;;;;136.10;38.47;;;3.00;99.90;;;;;;5038069;28;20233;-86
2023/03/04 00:38:37;;;;;;;129.17;39.30;;;3.00;99.90;;;;;;5037774;28;20172;-86
2023/03/04 00:41:03;;;;;;;118.43;39.00;;;3.10;99.90;;;;;;5039165;28;20180;-86
2023/03/04 00:43:29;;;;;;;118.03;35.23;;;3.10;99.90;;;;;;5039097;28;20227;-86
2023/03/04 00:45:54;;;;;;;126.47;38.17;;;3.10;99.90;;;;;;5039183;28;20739;-86
2023/03/04 00:48:20;;;;;;;119.37;36.37;;;3.10;99.90;;;;;;5039156;28;20400;-86
2023/03/04 00:50:46;;;;;;;131.63;39.70;;;3.10;99.90;;;;;;5038431;28;20921;-86
2023/03/04 00:53:11;;;;;;;133.30;38.37;;;3.10;99.90;;;;;;5037414;28;20181;-86
2023/03/04 00:55:37;;;;;;;119.07;35.50;;;3.10;99.90;;;;;;5038795;28;20219;-86
2023/03/04 00:58:03;;;;;;;109.53;31.00;;;3.10;99.90;;;;;;5037321;28;20173;-86
2023/03/04 01:00:28;;;;;;;113.33;33.77;;;3.10;99.90;;;;;;5037155;28;20197;-86
2023/03/04 01:02:54;;;;;;;121.30;35.73;;;3.10;99.90;;;;;;5039022;28;20545;-86
2023/03/04 01:05:20;;;;;;;112.80;30.83;;;3.30;99.90;;;;;;5039071;28;20443;-86
2023/03/04 01:07:46;;;;;;;121.13;35.60;;;3.30;99.90;;;;;;5042822;28;20157;-86
2023/03/04 01:10:13;;;;;;;119.47;33.40;;;3.30;99.90;;;;;;5042501;28;20161;-86
2023/03/04 01:12:40;;;;;;;110.53;31.92;;;3.20;99.90;;;;;;5041110;28;20599;-86
2023/03/04 01:15:07;;;;;;;117.43;33.05;;;3.20;99.90;;;;;;5042279;28;20587;-86
2023/03/04 01:17:33;;;;;;;114.57;33.05;;;3.20;99.90;;;;;;5042713;28;20165;-86
2023/03/04 01:19:59;;;;;;;107.10;33.28;;;3.10;99.90;;;;;;5043109;28;20169;-86
2023/03/04 01:22:25;;;;;;;119.83;32.83;;;3.10;99.90;;;;;;5041686;28;20259;-86
2023/03/04 01:24:50;;;;;;;115.30;35.20;;;3.20;99.90;;;;;;5042173;28;20204;-86
2023/03/04 01:27:16;;;;;;;107.23;30.87;;;3.20;99.90;;;;;;5041155;28;20245;-86
2023/03/04 01:29:42;;;;;;;106.00;31.60;;;3.40;99.90;;;;;;5042718;28;20196;-86
2023/03/04 01:32:07;;;;;;;108.37;31.90;;;3.30;99.90;;;;;;5040956;28;20201;-86
2023/03/04 01:34:33;;;;;;;103.13;30.90;;;3.40;99.90;;;;;;5041318;28;20175;-86
2023/03/04 01:36:59;;;;;;;101.13;30.43;;;3.30;99.90;;;;;;5042931;28;20162;-85
2023/03/04 01:39:27;;;;;;;106.40;29.37;;;3.30;99.90;;;;;;5042209;28;20628;-86
2023/03/04 01:41:53;;;;;;;102.75;27.65;;;3.30;99.90;;;;;;5042598;28;20196;-86
2023/03/04 01:44:19;;;;;;;104.57;33.53;;;3.30;99.90;;;;;;5041146;28;20189;-86
2023/03/04 01:46:51;;;;;;;96.33;28.07;;;3.30;99.90;;;;;;5042353;28;20400;-86
2023/03/04 01:49:18;;;;;;;102.07;28.85;;;3.30;99.90;;;;;;5041230;28;20154;-85
2023/03/04 01:51:51;;;;;;;101.70;31.08;;;3.30;99.90;;;;;;5042289;28;20185;-86
2023/03/04 01:54:18;;;;;;;100.47;25.33;;;3.30;99.90;;;;;;5041099;28;20161;-86
2023/03/04 01:56:46;;;;;;;106.15;29.70;;;3.30;99.90;;;;;;5042114;28;20559;-86
2023/03/04 01:59:18;;;;;;;93.97;28.42;;;3.30;99.90;;;;;;5040893;28;20273;-86
2023/03/04 02:01:55;;;;;;;94.88;30.02;;;3.30;99.90;;;;;;5041889;28;20595;-86
2023/03/04 02:04:30;;;;;;;103.60;30.95;;;3.50;99.90;;;;;;5041897;28;20189;-86
2023/03/04 02:06:58;;;;;;;99.22;27.45;;;3.50;99.90;;;;;;5040890;28;20223;-86
2023/03/04 02:09:24;;;;;;;102.07;29.42;;;3.50;99.90;;;;;;5041329;28;20211;-86
2023/03/04 02:11:51;;;;;;;97.45;28.35;;;3.40;99.90;;;;;;5039965;28;20285;-86
2023/03/04 02:14:17;;;;;;;100.22;29.20;;;3.50;99.90;;;;;;5039551;28;20199;-86
2023/03/04 02:16:43;;;;;;;92.85;28.92;;;3.40;99.90;;;;;;5038186;28;20168;-86
2023/03/04 02:19:20;;;;;;;102.03;26.10;;;3.50;99.90;;;;;;5039876;28;20173;-86
2023/03/04 02:21:46;;;;;;;99.68;26.55;;;3.60;99.30;;;;;;5040050;28;20900;-86
2023/03/04 02:24:28;;;;;;;91.50;23.83;;;3.60;95.60;;;;;;5039940;28;20239;-86
2023/03/04 02:26:53;;;;;;;93.80;25.10;;;3.70;95.40;;;;;;5040461;28;20191;-86
2023/03/04 02:29:19;;;;;;;95.77;24.23;;;3.70;94.80;;;;;;5040810;28;20244;-86
2023/03/04 02:31:51;;;;;;;91.30;26.30;;;3.60;95.10;;;;;;5040852;28;20443;-86
2023/03/04 02:34:20;;;;;;;98.93;25.38;;;3.70;95.30;;;;;;5041852;28;20236;-85
2023/03/04 02:36:48;;;;;;;99.70;24.05;;;3.70;94.50;;;;;;5041477;28;20169;-84
2023/03/04 02:39:19;;;;;;;107.05;24.88;;;3.70;93.60;;;;;;5039373;28;20173;-84
2023/03/04 02:41:46;;;;;;;100.78;24.42;;;3.80;93.00;;;;;;5040651;28;20234;-85
2023/03/04 02:44:36;;;;;;;92.50;21.35;;;3.70;92.40;;;;;;5040795;28;20246;-85
2023/03/04 02:47:04;;;;;;;104.50;23.98;;;3.80;92.70;;;;;;5039395;28;20176;-85
2023/03/04 02:49:31;;;;;;;93.82;24.08;;;3.80;93.10;;;;;;5040644;28;20162;-85
2023/03/04 02:52:01;;;;;;;95.50;22.83;;;3.80;91.30;;;;;;5040586;28;20525;-86
2023/03/04 02:54:27;;;;;;;99.22;24.08;;;3.80;91.90;;;;;;5039503;28;20637;-85
2023/03/04 02:57:01;;;;;;;88.10;21.17;;;3.80;91.50;;;;;;5040837;28;20249;-84
2023/03/04 02:59:27;;;;;;;90.95;22.65;;;3.80;91.10;;;;;;5040313;28;20384;-85
2023/03/04 03:01:53;;;;;;;101.97;24.63;;;3.80;90.60;;;;;;5040221;28;20712;-85
2023/03/04 03:04:20;;;;;;;92.88;25.50;;;3.80;92.10;;;;;;5038568;28;20199;-85
2023/03/04 03:06:46;;;;;;;101.03;26.55;;;3.70;93.70;;;;;;5039339;28;20161;-85
2023/03/04 03:09:12;;;;;;;99.47;26.40;;;3.70;93.80;;;;;;5040241;28;20187;-86
2023/03/04 03:11:38;;;;;;;97.53;25.08;;;3.70;94.60;;;;;;5040736;28;20424;-86
2023/03/04 03:14:04;;;;;;;97.00;28.97;;;3.60;96.30;;;;;;5039350;28;20196;-85
2023/03/04 03:16:32;;;;;;;97.07;25.42;;;3.70;95.70;;;;;;5039945;28;20396;-86
2023/03/04 03:18:58;;;;;;;106.07;27.10;;;3.70;94.50;;;;;;5040081;28;20220;-85
2023/03/04 03:21:24;;;;;;;101.67;29.50;;;3.70;95.20;;;;;;5039662;28;20166;-86
2023/03/04 03:23:49;;;;;;;98.30;26.97;;;3.70;94.90;;;;;;5039709;28;20256;-86
2023/03/04 03:26:18;;;;;;;95.80;26.57;;;3.70;94.60;;;;;;5038018;28;20169;-85
2023/03/04 03:28:44;;;;;;;96.03;26.10;;;3.70;94.70;;;;;;5039568;28;20203;-86
2023/03/04 03:31:09;;;;;;;94.77;27.43;;;3.70;93.70;;;;;;5039644;28;20633;-85
2023/03/04 03:33:35;;;;;;;97.93;24.70;;;3.70;94.50;;;;;;5038085;28;20215;-85
2023/03/04 03:36:01;;;;;;;98.53;26.17;;;3.70;94.90;;;;;;5038034;28;20228;-86
2023/03/04 03:38:27;;;;;;;94.70;25.88;;;3.70;95.00;;;;;;5038785;28;20200;-86
2023/03/04 03:40:53;;;;;;;92.80;25.70;;;3.70;94.50;;;;;;5040443;28;20173;-86
2023/03/04 03:43:19;;;;;;;99.00;27.80;;;3.70;95.10;;;;;;5039589;28;20487;-86
2023/03/04 03:45:45;;;;;;;97.03;26.77;;;3.70;95.90;;;;;;5038752;28;20161;-86
2023/03/04 03:48:10;;;;;;;99.90;25.17;;;3.70;96.10;;;;;;5037105;28;20498;-86
2023/03/04 03:50:36;;;;;;;94.67;25.30;;;3.70;96.40;;;;;;5037481;28;20511;-86
2023/03/04 03:53:02;;;;;;;90.73;23.67;;;3.70;95.10;;;;;;5038977;28;20205;-85
2023/03/04 03:55:28;;;;;;;92.72;26.63;;;3.70;95.60;;;;;;5037555;28;20176;-85
2023/03/04 03:57:54;;;;;;;99.43;27.80;;;3.70;94.90;;;;;;5037429;28;20169;-86
2023/03/04 04:00:20;;;;;;;92.13;24.30;;;3.70;95.20;;;;;;5039232;28;20169;-86
2023/03/04 04:02:45;;;;;;;89.25;24.17;;;3.70;95.50;;;;;;5037372;28;20216;-86
2023/03/04 04:05:11;;;;;;;98.83;26.93;;;3.80;95.30;;;;;;5038527;28;20587;-86
2023/03/04 04:07:37;;;;;;;94.72;24.60;;;3.70;95.10;;;;;;5038748;28;20161;-86
2023/03/04 04:10:04;;;;;;;93.38;25.55;;;3.70;94.70;;;;;;5037417;28;20197;-85
2023/03/04 04:12:31;;;;;;;97.43;26.10;;;3.60;95.70;;;;;;5037749;28;20676;-85
2023/03/04 04:14:57;;;;;;;90.88;23.75;;;3.70;96.50;;;;;;5038638;28;20532;-86
2023/03/04 04:17:23;;;;;;;94.93;22.67;;;3.70;95.20;;;;;;5037545;28;20169;-86
2023/03/04 04:19:48;;;;;;;101.73;23.03;;;3.70;96.40;;;;;;5038430;28;20236;-85
2023/03/04 04:22:16;;;;;;;97.77;26.17;;;3.70;96.40;;;;;;5039177;28;20185;-86
2023/03/04 04:24:42;;;;;;;96.05;25.55;;;3.70;96.70;;;;;;5038643;28;20189;-86
2023/03/04 04:27:08;;;;;;;95.83;24.93;;;3.80;96.60;;;;;;5037581;28;20219;-86
2023/03/04 04:29:34;;;;;;;93.30;23.13;;;3.80;96.50;;;;;;5036623;28;20168;-86
2023/03/04 04:32:00;;;;;;;96.40;24.27;;;3.80;96.70;;;;;;5038602;28;20284;-86
2023/03/04 04:34:25;;;;;;;96.47;22.60;;;3.80;96.30;;;;;;5037684;28;20423;-86
2023/03/04 04:36:51;;;;;;;87.03;24.30;;;3.90;94.50;;;;;;5038792;28;20173;-85
2023/03/04 04:39:18;;;;;;;92.38;23.40;;;3.90;93.70;;;;;;5038969;28;20853;-86
2023/03/04 04:41:44;;;;;;;88.90;22.58;;;3.90;94.70;;;;;;5041459;28;20355;-86
2023/03/04 04:44:11;;;;;;;88.43;21.10;;;3.90;94.00;;;;;;5041975;28;20193;-85
2023/03/04 04:46:37;;;;;;;90.75;23.25;;;3.90;93.80;;;;;;5042962;28;20565;-86
2023/03/04 04:49:03;;;;;;;91.10;21.77;;;3.90;93.50;;;;;;5041390;28;20212;-85
2023/03/04 04:51:29;;;;;;;85.05;23.63;;;3.90;93.90;;;;;;5042226;28;20185;-85
2023/03/04 04:53:55;;;;;;;89.23;20.27;;;3.90;93.80;;;;;;5042602;28;20529;-85
2023/03/04 04:56:25;;;;;;;84.40;20.40;;;3.90;94.80;;;;;;5043652;28;20180;-84
2023/03/04 04:58:52;;;;;;;89.85;19.42;;;3.90;94.00;;;;;;5041415;28;20411;-85
2023/03/04 05:01:17;;;;;;;82.68;19.67;;;4.00;93.50;;;;;;5042439;28;20530;-86
2023/03/04 05:03:43;;;;;;;87.57;20.83;;;4.00;92.70;;;;;;5040677;28;20192;-85
2023/03/04 05:06:10;;;;;;;87.47;19.30;;;4.00;92.90;;;;;;5040899;28;20218;-86
2023/03/04 05:08:36;;;;;;;90.45;19.98;;;4.00;91.50;;;;;;5041335;28;20224;-85
2023/03/04 05:11:09;;;;;;;89.70;17.77;;;3.90;92.20;;;;;;5040839;28;20184;-85
2023/03/04 05:13:35;;;;;;;88.90;18.67;;;3.90;92.70;;;;;;5041536;28;20189;-86
2023/03/04 05:16:01;;;;;;;82.27;16.40;;;3.90;93.50;;;;;;5040917;28;20169;-86
2023/03/04 05:18:36;;;;;;;90.70;18.10;;;4.00;93.10;;;;;;5040373;28;20771;-86
2023/03/04 05:21:03;;;;;;;82.15;16.25;;;3.90;94.10;;;;;;5042506;28;20163;-86
2023/03/04 05:23:41;;;;;;;87.03;20.17;;;3.90;94.30;;;;;;5041708;28;20185;-86
2023/03/04 05:26:12;;;;;;;79.38;18.05;;;4.00;92.80;;;;;;5040102;28;20179;-86
2023/03/04 05:28:41;;;;;;;75.55;18.15;;;4.00;91.30;;;;;;5040118;28;20292;-85
2023/03/04 05:31:10;;;;;;;82.65;15.77;;;4.00;91.50;;;;;;5042148;28;20327;-86
2023/03/04 05:33:36;;;;;;;81.57;13.00;;;4.10;91.40;;;;;;5119773;22;20220;-81
2023/03/04 05:36:06;;;;;;;90.90;14.68;;;4.10;91.40;;;;;;5058916;28;20183;-82
2023/03/04 05:38:32;;;;;;;80.00;13.25;;;4.10;91.50;;;;;;5059135;28;20168;-82
2023/03/04 05:41:01;;;;;;;81.70;15.50;;;4.20;89.50;;;;;;5058571;28;20169;-82
2023/03/04 05:43:35;;;;;;;76.93;11.25;;;4.20;88.50;;;;;;5058904;28;20192;-81
2023/03/04 05:46:07;;;;;;;72.97;10.52;;;4.20;89.40;;;;;;5059298;28;20228;-82
2023/03/04 05:48:32;;;;;;;75.63;12.63;;;4.20;87.50;;;;;;5058530;28;20168;-82
2023/03/04 05:51:06;;;;;;;81.83;10.23;;;4.20;86.30;;;;;;5058749;28;20161;-82
2023/03/04 05:53:44;;;;;;;84.32;12.85;;;4.20;81.10;;;;;;5058244;28;20239;-82
2023/03/04 05:56:14;;;;;;;75.95;11.45;;;4.20;82.30;;;;;;5058618;28;20171;-81
2023/03/04 05:59:00;;;;;;;78.47;10.00;;;4.20;82.50;;;;;;5058631;28;20199;-82
2023/03/04 06:01:26;;;;;;;91.80;23.75;;;4.20;84.60;;;;;;5058896;28;20187;-82
2023/03/04 06:03:55;;;;;;;80.37;13.30;;;4.30;82.50;;;;;;5058103;28;20569;-82
2023/03/04 06:06:21;;;;;;;77.60;10.73;;;4.30;77.50;;;;;;5058367;28;20184;-82
2023/03/04 06:08:46;;;;;;;81.17;11.00;;;4.30;75.70;;;;;;5058640;28;20624;-82
2023/03/04 06:11:20;;;;;;;77.77;9.77;;;4.30;78.50;;;;;;5057292;28;20164;-81
2023/03/04 06:13:46;;;;;;;70.68;8.30;;;4.30;79.20;;;;;;5058277;28;20157;-82
2023/03/04 06:16:11;;;;;;;79.83;9.23;;;4.30;80.70;;;;;;5058196;28;20172;-82
2023/03/04 06:18:44;;;;;;;73.33;9.50;;;4.40;78.00;;;;;;5058012;28;20165;-81
2023/03/04 06:21:10;;;;;;;74.07;10.82;;;4.40;77.10;;;;;;5058212;28;20179;-82
2023/03/04 06:23:46;;;;;;;73.83;8.20;;;4.40;74.20;;;;;;5056301;28;20287;-82
2023/03/04 06:26:32;;;;;;;73.25;9.30;;;4.40;76.20;;;;;;5058139;28;20144;-82
2023/03/04 06:29:00;;;;;;;75.13;13.82;;;4.40;75.10;;;;;;5058092;28;20255;-82
2023/03/04 06:31:26;;;;;;;81.07;13.65;;;4.40;72.00;;;;;;5057290;28;20245;-81
2023/03/04 06:33:52;;;;;;;85.27;15.67;;;4.30;73.70;;;;;;5076777;28;20611;-81
2023/03/04 06:36:17;;;;;;;80.20;13.27;;;4.30;76.70;;;;;;5076004;28;20167;-81
2023/03/04 06:38:43;;;;;;;77.30;12.97;;;4.40;77.80;;;;;;5076682;28;20509;-81
2023/03/04 06:41:13;;;;;;;73.40;13.93;;;4.40;72.20;;;;;;5077919;28;20160;-81
2023/03/04 06:43:39;;;;;;;75.15;14.13;;;4.30;71.70;;;;;;5077219;28;20469;-81
2023/03/04 06:46:08;;;;;;;78.40;11.48;;;4.30;73.00;;;;;;5077331;28;20219;-81
2023/03/04 06:48:37;;;;;;;73.45;16.10;;;4.40;73.30;;;;;;5076417;28;20547;-81
2023/03/04 06:51:10;;;;;;;76.05;13.02;;;4.30;76.70;;;;;;5077514;28;20160;-81
2023/03/04 06:53:39;;;;;;;72.30;15.52;;;4.40;76.50;;;;;;5077362;28;20183;-81
2023/03/04 06:56:06;;;;;;;73.70;15.25;;;4.40;79.70;;;;;;5077114;28;20175;-81
2023/03/04 06:58:32;;;;;;;72.55;13.65;;;4.40;78.10;;;;;;5075850;28;20198;-81
2023/03/04 07:01:19;;;;;;;79.43;17.27;;;4.40;79.00;;;;;;5076427;28;20646;-81
2023/03/04 07:03:46;;;;;;;77.63;13.95;;;4.40;81.80;;;;;;5074186;28;20272;-81
2023/03/04 07:06:14;;;;;;;73.97;16.65;;;4.40;82.00;;;;;;5076502;28;20164;-81
2023/03/04 07:08:44;;;;;;;72.90;13.50;;;4.50;82.10;;;;;;5076269;28;20164;-81
2023/03/04 07:11:10;;;;;;;72.82;13.57;;;4.50;80.50;;;;;;5075363;28;20199;-81
2023/03/04 07:13:42;;;;;;;80.15;13.60;;;4.50;81.10;;;;;;5075910;28;20654;-81
2023/03/04 07:16:47;;;;;;;73.03;12.52;;;4.50;82.30;;;;;;5076808;28;20539;-81
2023/03/04 07:19:13;;;;;;;69.57;13.35;;;4.50;82.00;;;;;;5073702;28;20542;-81
2023/03/04 07:21:39;;;;;;;76.00;9.20;;;4.60;75.20;;;;;;5076373;28;20209;-81
2023/03/04 07:24:04;;;;;;;72.60;12.40;;;4.70;71.70;;;;;;5075353;28;20191;-81
2023/03/04 07:26:30;;;;;;;76.60;14.83;;;4.60;73.60;;;;;;5076242;28;20649;-81
2023/03/04 07:29:02;;;;;;;78.33;15.00;;;4.50;73.60;;;;;;5076640;28;20398;-81
2023/03/04 07:31:30;;;;;;;69.05;11.50;;;4.60;72.90;;;;;;5076273;28;20168;-81
2023/03/04 07:33:59;;;;;;;75.22;9.60;;;4.70;70.40;;;;;;5075190;28;20187;-81
2023/03/04 07:36:25;;;;;;;71.32;10.27;;;4.60;66.90;;;;;;5076954;28;20164;-81
2023/03/04 07:38:51;;;;;;;73.18;12.07;;;4.60;67.10;;;;;;5076797;28;20170;-81
2023/03/04 07:41:17;;;;;;;71.13;9.63;;;4.60;69.80;;;;;;5075457;28;20168;-81
2023/03/04 07:43:43;;;;;;;70.78;7.85;;;4.70;68.00;;;;;;5076099;28;20437;-81
2023/03/04 07:46:09;;;;;;;78.35;11.02;;;4.70;66.50;;;;;;5074896;28;20561;-81
2023/03/04 07:48:36;;;;;;;68.93;7.93;;;4.70;63.90;;;;;;5076805;28;20201;-81
2023/03/04 07:51:09;;;;;;;76.80;8.25;;;4.80;62.80;;;;;;5076522;28;20403;-81
2023/03/04 07:53:36;;;;;;;74.43;8.32;;;4.90;62.30;;;;;;5076242;28;20184;-81
2023/03/04 07:56:03;;;;;;;81.38;7.78;;;4.90;58.90;;;;;;5075135;28;20160;-81
2023/03/04 07:58:29;;;;;;;79.63;7.80;;;4.90;61.20;;;;;;5077039;28;20171;-81
2023/03/04 08:00:55;;;;;;;70.70;9.27;;;4.90;62.60;;;;;;5077455;28;20164;-81
2023/03/04 08:03:20;;;;;;;76.90;8.33;;;4.80;61.70;;;;;;5076789;28;20180;-81
2023/03/04 08:05:46;;;;;;;68.93;5.77;;;4.90;63.40;;;;;;5076571;28;20305;-81
2023/03/04 08:08:12;;;;;;;72.73;6.63;;;5.00;62.20;;;;;;5076854;28;20572;-81
2023/03/04 08:10:38;;;;;;;71.80;6.93;;;5.00;57.80;;;;;;5076959;28;20164;-81
2023/03/04 08:13:06;;;;;;;74.05;5.63;;;5.00;59.80;;;;;;5077256;28;20191;-81
2023/03/04 08:15:42;;;;;;;68.30;6.07;;;5.10;58.10;;;;;;5076228;28;20168;-81
2023/03/04 08:18:54;;;;;;;71.57;5.90;;;5.20;56.00;;;;;;5077607;28;20631;-81
2023/03/04 08:21:27;;;;;;;78.03;6.65;;;5.20;54.00;;;;;;5058569;28;20206;-81
2023/03/04 08:23:58;;;;;;;78.18;6.93;;;5.20;52.50;;;;;;5076912;28;20202;-81
2023/03/04 08:26:30;;;;;;;73.43;7.20;;;5.20;51.20;;;;;;5075403;28;20166;-81
2023/03/04 08:29:01;;;;;;;70.38;7.30;;;5.20;54.20;;;;;;5075021;28;20573;-81
2023/03/04 08:31:31;;;;;;;69.78;5.88;;;5.20;52.00;;;;;;5076172;28;20501;-81
2023/03/04 08:33:57;;;;;;;71.63;5.30;;;5.20;53.50;;;;;;5075213;28;20180;-81
2023/03/04 08:36:22;;;;;;;67.20;6.27;;;5.20;57.10;;;;;;5076831;28;20171;-81
2023/03/04 08:38:56;;;;;;;70.27;6.50;;;5.20;53.50;;;;;;5076797;28;20402;-81
2023/03/04 08:41:21;;;;;;;77.38;6.47;;;5.20;52.10;;;;;;5076740;28;20402;-81
2023/03/04 08:43:47;;;;;;;73.37;6.30;;;5.30;54.30;;;;;;5076372;28;20705;-81
2023/03/04 08:46:13;;;;;;;74.53;5.70;;;5.30;52.70;;;;;;5076724;28;20235;-81
2023/03/04 08:48:39;;;;;;;73.77;6.87;;;5.40;48.20;;;;;;5076740;28;20568;-81
2023/03/04 08:51:10;;;;;;;71.53;7.30;;;5.30;48.20;;;;;;5076206;28;20421;-81
2023/03/04 08:53:36;;;;;;;72.05;7.55;;;5.30;53.10;;;;;;5076644;28;20195;-81
2023/03/04 08:56:03;;;;;;;69.00;8.82;;;5.30;55.70;;;;;;5077060;28;20156;-81
2023/03/04 08:58:28;;;;;;;77.30;9.43;;;5.40;60.00;;;;;;5075268;28;20214;-81
2023/03/04 09:00:54;;;;;;;71.60;11.50;;;5.40;60.20;;;;;;5077297;28;20168;-81
2023/03/04 09:03:22;;;;;;;68.10;11.50;;;5.40;63.00;;;;;;5076248;28;20182;-81
2023/03/04 09:05:48;;;;;;;70.03;14.45;;;5.40;62.90;;;;;;5076581;28;20164;-81
2023/03/04 09:08:15;;;;;;;70.27;13.57;;;5.40;63.70;;;;;;5076642;28;20630;-81
2023/03/04 09:10:41;;;;;;;73.07;20.23;;;5.60;60.80;;;;;;5076471;28;20654;-81
2023/03/04 09:13:06;;;;;;;69.63;14.23;;;5.60;59.70;;;;;;5076075;28;20180;-81
2023/03/04 09:15:36;;;;;;;77.60;15.73;;;5.60;62.90;;;;;;5076104;28;20625;-81
2023/03/04 09:18:03;;;;;;;71.90;18.20;;;5.60;63.90;;;;;;5075346;28;20175;-82
2023/03/04 09:20:29;;;;;;;69.70;12.25;;;5.70;61.20;;;;;;5075272;28;20164;-81
2023/03/04 09:22:55;;;;;;;73.32;13.75;;;5.80;61.40;;;;;;5076358;28;20188;-81
2023/03/04 09:25:20;;;;;;;72.40;18.43;;;5.80;60.40;;;;;;5076271;28;20187;-81
2023/03/04 09:27:46;;;;;;;70.37;18.67;;;5.80;65.10;;;;;;5080067;28;20186;-81
2023/03/04 09:30:48;;;;;;;;;;;;;;;;;;;;;
2023/03/04 09:33:14;;;;;;;75.60;12.00;;;6.00;61.70;;;;;;5079568;28;20195;-81
2023/03/04 09:35:42;;;;;;;73.93;9.10;;;6.20;61.30;;;;;;5079904;28;20230;-81
2023/03/04 09:38:10;;;;;;;67.28;7.20;;;6.20;57.00;;;;;;5079467;28;20249;-80
2023/03/04 09:40:46;;;;;;;70.80;8.23;;;6.20;51.70;;;;;;5079080;28;20500;-81
2023/03/04 09:43:23;;;;;;;68.28;9.65;;;6.30;54.90;;;;;;5079564;28;20179;-81
2023/03/04 09:45:54;;;;;;;71.65;7.50;;;6.40;54.60;;;;;;5079535;28;20235;-81
2023/03/04 09:48:23;;;;;;;69.20;6.07;;;6.50;49.80;;;;;;5080012;28;20512;-81
2023/03/04 09:50:58;;;;;;;65.20;5.53;;;6.70;42.40;;;;;;5079131;28;20152;-81
2023/03/04 09:53:46;;;;;;;66.30;5.35;;;6.70;33.70;;;;;;5079512;28;20175;-81
2023/03/04 09:56:13;;;;;;;70.28;4.63;;;6.60;35.20;;;;;;5079596;28;20176;-81
2023/03/04 09:58:49;;;;;;;69.13;4.53;;;6.70;29.20;;;;;;5079584;28;20183;-81
2023/03/04 10:01:25;;;;;;;69.22;4.50;;;6.70;25.40;;;;;;5079429;28;20147;-81
2023/03/04 10:03:58;;;;;;;66.00;5.32;;;6.70;26.40;;;;;;5079237;28;20192;-81
2023/03/04 10:06:24;;;;;;;69.65;5.65;;;6.80;19.70;;;;;;5077627;28;20164;-81
2023/03/04 10:08:55;;;;;;;65.40;5.97;;;6.70;14.10;;;;;;5079771;28;20160;-81
2023/03/04 10:11:45;;;;;;;72.95;5.55;;;6.60;15.80;;;;;;5077629;28;20410;-81
2023/03/04 10:14:22;;;;;;;67.55;5.20;;;6.60;19.30;;;;;;5079589;28;20567;-81
2023/03/04 10:17:18;;;;;;;68.00;5.30;;;6.50;19.10;;;;;;5078621;28;20183;-81
2023/03/04 10:20:11;;;;;;;66.80;5.28;;;6.50;20.90;;;;;;5070223;28;20205;-81
2023/03/04 10:22:47;;;;;;;65.03;4.78;;;6.50;19.90;;;;;;5076892;28;20192;-81
2023/03/04 10:25:24;;;;;;;69.28;6.10;;;6.50;21.50;;;;;;5076818;28;20187;-81
2023/03/04 10:28:10;;;;;;;75.28;4.82;;;6.60;24.30;;;;;;5078420;28;20152;-81
2023/03/04 10:31:09;;;;;;;70.93;5.63;;;6.60;24.40;;;;;;5077250;28;20258;-81
2023/03/04 10:33:37;;;;;;;73.90;6.60;;;6.80;24.30;;;;;;5075225;28;20223;-81
2023/03/04 10:36:48;;;;;;;67.32;5.25;;;6.90;24.10;;;;;;5078778;28;20156;-81
2023/03/04 10:39:24;;;;;;;65.03;4.85;;;7.00;26.10;;;;;;5073102;28;20202;-81
2023/03/04 10:41:59;;;;;;;67.32;4.40;;;6.90;28.00;;;;;;5078512;28;20183;-81
2023/03/04 10:44:25;;;;;;;65.78;4.07;;;6.90;33.70;;;;;;5078373;28;20536;-81
2023/03/04 10:46:54;;;;;;;69.43;4.70;;;6.90;34.70;;;;;;5077809;28;20192;-81
2023/03/04 10:49:21;;;;;;;71.03;6.07;;;6.90;35.70;;;;;;5078309;28;20662;-81
2023/03/04 10:51:49;;;;;;;67.95;6.97;;;6.80;37.20;;;;;;5078240;28;20184;-81
2023/03/04 10:54:23;;;;;;;67.25;5.90;;;6.80;42.00;;;;;;5078269;28;20167;-81
2023/03/04 10:57:01;;;;;;;66.78;5.55;;;6.90;44.70;;;;;;5078534;28;20155;-81
2023/03/04 10:59:40;;;;;;;66.30;4.90;;;7.10;40.10;;;;;;5078386;28;20148;-81
2023/03/04 11:02:26;;;;;;;66.93;4.50;;;7.10;34.30;;;;;;5077486;28;20194;-81
2023/03/04 11:04:52;;;;;;;67.63;5.13;;;7.00;27.40;;;;;;5077969;28;20230;-81
2023/03/04 11:07:19;;;;;;;70.10;4.90;;;6.90;30.50;;;;;;5078018;28;20639;-81
2023/03/04 11:09:45;;;;;;;65.95;4.38;;;6.90;31.30;;;;;;5078109;28;20620;-81
2023/03/04 11:12:15;;;;;;;69.93;5.40;;;6.80;26.50;;;;;;5077682;28;20184;-81
2023/03/04 11:14:53;;;;;;;70.97;5.43;;;6.90;28.50;;;;;;5077544;28;20765;-81
2023/03/04 11:17:20;;;;;;;68.30;4.82;;;7.00;30.00;;;;;;5078197;28;20152;-81
2023/03/04 11:20:02;;;;;;;68.38;4.22;;;7.10;34.10;;;;;;5078008;28;20547;-81
2023/03/04 11:22:29;;;;;;;65.43;4.65;;;7.20;29.50;;;;;;5077661;28;20549;-81
2023/03/04 11:25:02;;;;;;;65.20;4.35;;;7.10;25.40;;;;;;5077578;28;20187;-81
2023/03/04 11:27:40;;;;;;;70.07;4.90;;;7.00;23.20;;;;;;5078139;28;20148;-81
2023/03/04 11:30:41;;;;;;;68.90;4.80;;;7.10;22.50;;;;;;5077697;28;20237;-81
2023/03/04 11:33:18;;;;;;;65.78;4.80;;;7.00;23.60;;;;;;5165414;22;20281;-85
2023/03/04 11:36:16;;;;;;;65.88;5.10;;;7.10;25.50;;;;;;5079258;28;20159;-85
2023/03/04 11:38:52;;;;;;;66.63;5.50;;;7.10;26.50;;;;;;5078314;28;20168;-85
2023/03/04 11:41:30;;;;;;;66.45;5.43;;;7.20;23.60;;;;;;5078195;28;20168;-85
2023/03/04 11:43:58;;;;;;;70.03;5.90;;;7.20;18.50;;;;;;5078447;28;20655;-85
2023/03/04 11:46:54;;;;;;;67.95;6.65;;;7.20;23.70;;;;;;5077651;28;20540;-85
2023/03/04 11:49:38;;;;;;;65.63;5.15;;;7.30;23.70;;;;;;5078887;28;20175;-85
2023/03/04 11:52:55;;;;;;;66.50;4.65;;;7.30;20.30;;;;;;5078831;28;20250;-85
2023/03/04 11:55:59;;;;;;;66.47;4.45;;;7.40;16.60;;;;;;5079054;28;20528;-85
2023/03/04 11:58:57;;;;;;;64.43;4.00;;;7.20;16.00;;;;;;5054342;28;20188;-85
2023/03/04 12:01:40;;;;;;;67.85;4.55;;;7.20;17.70;;;;;;5077733;28;20172;-85
2023/03/04 12:04:30;;;;;;;64.88;4.53;;;7.20;20.10;;;;;;5077266;28;20261;-85
2023/03/04 12:07:01;;;;;;;70.70;6.20;;;7.20;24.10;;;;;;5078965;28;20242;-85
2023/03/04 12:09:48;;;;;;;67.18;5.75;;;7.10;23.30;;;;;;5078834;28;20174;-85
2023/03/04 12:12:45;;;;;;;72.38;5.72;;;7.10;27.30;;;;;;5079170;28;20191;-85
2023/03/04 12:15:42;;;;;;;69.00;7.25;;;7.10;27.30;;;;;;5079664;28;20144;-85
2023/03/04 12:18:26;;;;;;;67.35;6.10;;;7.10;24.10;;;;;;5077531;28;20176;-85
2023/03/04 12:21:41;;;;;;;65.88;5.65;;;7.30;24.80;;;;;;5078706;28;20168;-85
2023/03/04 12:24:34;;;;;;;65.70;5.55;;;7.40;24.90;;;;;;5051345;28;20263;-85
2023/03/04 12:27:33;;;;;;;66.40;5.18;;;7.60;22.30;;;;;;5081096;28;20149;-84
2023/03/04 12:30:14;;;;;;;66.88;4.05;;;7.70;22.30;;;;;;5080459;28;20152;-85
2023/03/04 12:32:43;;;;;;;67.88;3.88;;;8.00;16.70;;;;;;5080745;28;20202;-85
2023/03/04 12:35:22;;;;;;;67.20;4.80;;;8.10;13.60;;;;;;5078727;28;20264;-85
2023/03/04 12:38:02;;;;;;;68.60;6.45;;;8.30;10.20;;;;;;5080039;28;20152;-85
2023/03/04 12:40:48;;;;;;;77.55;8.13;;;8.40;10.10;;;;;;5080481;28;20148;-86
2023/03/04 12:43:26;;;;;;;72.65;6.25;;;8.50;6.40;;;;;;5078214;28;20567;-85
2023/03/04 12:46:05;;;;;;;69.70;5.60;;;8.50;1.00;;;;;;5077964;28;20186;-85
2023/03/04 12:48:47;;;;;;;75.53;6.00;;;8.40;1.00;;;;;;5078100;28;20162;-85
2023/03/04 12:51:48;;;;;;;67.53;5.00;;;8.30;1.00;;;;;;5079579;28;20152;-85
2023/03/04 12:54:26;;;;;;;67.07;4.22;;;8.30;1.00;;;;;;5050053;28;20190;-85
2023/03/04 12:57:20;;;;;;;66.55;3.70;;;8.20;1.00;;;;;;5079019;28;20159;-85
2023/03/04 13:00:09;;;;;;;64.40;4.00;;;8.10;1.00;;;;;;5078723;28;20164;-85
2023/03/04 13:02:53;;;;;;;66.35;4.90;;;8.00;1.00;;;;;;5080966;28;20601;-85